Time;durP1;ratioP1;P1;durP2;ratioP2;P2;SDS_P1;SDS_P2;PMS_P1;PMS_P2;Temp;Humidity;BMP_temperature;BMP_pressure;BME280_temperature;BME280_humidity;BME280_pressure;Samples;Min_cycle;Max_cycle;Signal;HPM_P1;HPM_P2
2022/12/07 00:00:23;;;;;;;23.85;13.10;;;;;;;1.99;100.00;98550.50;4472631;77;22051;-91
2022/12/07 00:06:27;;;;;;;22.22;13.48;;;;;;;1.99;100.00;98549.91;4476958;77;21037;-90
2022/12/07 00:12:28;;;;;;;24.32;14.07;;;;;;;1.98;100.00;98544.84;4495600;77;21955;-90
2022/12/07 00:18:30;;;;;;;23.77;15.35;;;;;;;1.98;100.00;98551.05;4342881;79;21650;-89
2022/12/07 00:24:31;;;;;;;26.73;13.90;;;;;;;2.01;100.00;98540.14;4475067;77;21456;-90
2022/12/07 00:30:33;;;;;;;27.27;13.18;;;;;;;2.00;100.00;98544.77;4468807;77;21420;-90
2022/12/07 00:36:35;;;;;;;27.75;16.55;;;;;;;1.99;100.00;98543.75;4481666;77;21046;-92
2022/12/07 00:42:36;;;;;;;29.90;17.45;;;;;;;1.98;100.00;98542.95;4481338;77;20951;-91
2022/12/07 00:48:38;;;;;;;34.83;17.05;;;;;;;2.03;100.00;98539.25;4460481;77;21488;-90
2022/12/07 00:54:40;;;;;;;31.33;17.57;;;;;;;1.98;100.00;98532.16;4465426;77;21894;-90
2022/12/07 01:00:43;;;;;;;26.50;15.28;;;;;;;1.97;100.00;98531.13;4474189;77;21689;-90
2022/12/07 01:06:45;;;;;;;25.12;14.47;;;;;;;2.01;100.00;98530.69;4464572;78;21511;-90
2022/12/07 01:12:46;;;;;;;26.77;13.98;;;;;;;2.01;100.00;98524.73;4464708;77;21365;-90
2022/12/07 01:18:51;;;;;;;25.05;13.55;;;;;;;2.02;100.00;98522.84;4472627;78;20987;-90
2022/12/07 01:24:53;;;;;;;21.62;14.43;;;;;;;1.97;100.00;98513.03;4480184;77;20962;-91
2022/12/07 01:31:05;;;;;;;22.60;13.15;;;;;;;1.99;100.00;98505.95;4477257;78;20951;-90
2022/12/07 01:37:06;;;;;;;23.73;13.68;;;;;;;1.96;100.00;98510.09;4383661;79;21012;-91
2022/12/07 01:43:19;;;;;;;24.12;14.30;;;;;;;1.93;100.00;98512.68;4398153;79;21003;-91
2022/12/07 01:49:43;;;;;;;26.17;15.43;;;;;;;1.94;100.00;98506.95;4470132;78;21753;-91
2022/12/07 01:55:49;;;;;;;28.85;15.65;;;;;;;1.95;100.00;98504.47;4462080;78;20956;-91
2022/12/07 02:01:53;;;;;;;31.57;18.83;;;;;;;1.95;100.00;98502.31;4456995;78;21503;-91
2022/12/07 02:07:57;;;;;;;27.67;15.58;;;;;;;1.96;100.00;98499.29;4465298;78;20991;-91
2022/12/07 02:13:58;;;;;;;31.93;17.10;;;;;;;1.94;100.00;98503.45;4465928;78;20975;-90
2022/12/07 02:20:31;;;;;;;29.80;16.32;;;;;;;1.93;100.00;98491.85;4386114;79;21066;-90
2022/12/07 02:26:45;;;;;;;28.15;16.70;;;;;;;1.94;100.00;98494.80;4293710;81;21022;-90
2022/12/07 02:33:06;;;;;;;25.17;14.70;;;;;;;1.93;100.00;98500.53;4405543;79;21101;-90
2022/12/07 02:39:25;;;;;;;25.77;13.45;;;;;;;1.89;100.00;98495.00;4411630;79;21031;-90
2022/12/07 02:45:28;;;;;;;23.30;13.55;;;;;;;1.81;100.00;98492.35;4408686;79;21010;-90
2022/12/07 02:51:34;;;;;;;24.23;12.65;;;;;;;1.70;100.00;98494.66;4407928;79;20974;-90
2022/12/07 02:58:13;;;;;;;25.17;13.73;;;;;;;1.71;100.00;98492.19;4418252;79;21039;-90
2022/12/07 03:04:41;;;;;;;25.12;13.55;;;;;;;1.74;100.00;98482.08;4392557;79;21006;-90
2022/12/07 03:10:59;;;;;;;24.63;13.22;;;;;;;1.78;100.00;98477.62;4448738;78;22096;-90
2022/12/07 03:17:09;;;;;;;25.35;14.38;;;;;;;1.73;100.00;98478.36;4455840;78;21518;-91
2022/12/07 03:23:15;;;;;;;32.15;15.45;;;;;;;1.75;100.00;98476.13;4399213;79;21031;-90
2022/12/07 03:29:26;;;;;;;26.70;14.87;;;;;;;1.75;100.00;98470.19;4398143;79;20963;-90
2022/12/07 03:35:39;;;;;;;30.37;16.07;;;;;;;1.75;100.00;98471.53;4390590;79;22053;-90
2022/12/07 03:41:41;;;;;;;33.13;17.57;;;;;;;1.75;100.00;98468.03;4455010;78;21085;-90
2022/12/07 03:48:31;;;;;;;27.80;15.93;;;;;;;1.77;100.00;98460.41;4455042;78;21056;-91
2022/12/07 03:54:41;;;;;;;28.23;16.42;;;;;;;1.78;100.00;98458.73;4441821;78;21088;-91
2022/12/07 04:00:44;;;;;;;35.30;19.70;;;;;;;1.74;100.00;98447.58;4446142;77;21068;-91
2022/12/07 04:06:51;;;;;;;32.33;20.25;;;;;;;1.66;100.00;98447.09;4455032;78;21042;-91
2022/12/07 04:12:53;;;;;;;36.83;21.35;;;;;;;1.63;100.00;98446.62;4366762;79;21527;-91
2022/12/07 04:18:58;;;;;;;35.20;21.48;;;;;;;1.63;100.00;98446.62;4365547;79;21077;-91
2022/12/07 04:24:59;;;;;;;38.10;20.05;;;;;;;1.60;100.00;98439.19;4290010;81;21062;-91
2022/12/07 04:31:02;;;;;;;29.82;17.75;;;;;;;1.63;100.00;98446.40;4418407;79;20971;-90
2022/12/07 04:37:05;;;;;;;30.43;16.55;;;;;;;1.63;100.00;98436.38;4410278;79;21058;-91
2022/12/07 04:43:08;;;;;;;21.07;13.32;;;;;;;1.69;100.00;98422.94;4415106;79;20978;-91
2022/12/07 04:49:12;;;;;;;23.70;12.88;;;;;;;1.76;100.00;98427.78;4415698;79;21542;-90
2022/12/07 04:55:14;;;;;;;26.70;16.35;;;;;;;1.82;100.00;98431.87;4428693;78;21455;-90
2022/12/07 05:01:19;;;;;;;27.87;15.35;;;;;;;1.84;100.00;98434.47;4419389;79;21083;-91
2022/12/07 05:07:20;;;;;;;25.48;16.80;;;;;;;1.89;100.00;98428.87;4401602;79;21348;-91
2022/12/07 05:13:22;;;;;;;22.10;14.13;;;;;;;1.93;100.00;98430.35;4405588;79;21692;-90
2022/12/07 05:19:25;;;;;;;21.87;13.45;;;;;;;2.00;100.00;98430.03;4441337;78;21090;-91
2022/12/07 05:25:27;;;;;;;22.67;14.03;;;;;;;2.03;100.00;98429.92;4404859;79;21077;-92
2022/12/07 05:31:30;;;;;;;19.62;12.73;;;;;;;2.04;100.00;98433.63;4274557;79;290067;-91
2022/12/07 05:37:32;;;;;;;18.87;11.48;;;;;;;2.05;100.00;98428.45;4209312;83;21049;-91
2022/12/07 05:43:35;;;;;;;18.15;11.97;;;;;;;2.08;100.00;98439.16;4304707;81;21131;-90
2022/12/07 05:49:39;;;;;;;22.00;13.50;;;;;;;2.07;100.00;98444.34;4302312;81;21066;-91
2022/12/07 05:55:46;;;;;;;23.10;14.00;;;;;;;2.08;100.00;98453.47;4306428;81;20994;-91
2022/12/07 06:01:57;;;;;;;21.48;13.20;;;;;;;2.08;100.00;98450.77;4305626;80;21040;-91
2022/12/07 06:07:58;;;;;;;19.10;12.00;;;;;;;2.09;100.00;98459.63;4301790;81;21538;-91
2022/12/07 06:14:04;;;;;;;16.87;11.12;;;;;;;2.04;100.00;98463.33;4232980;82;21060;-91
2022/12/07 06:20:15;;;;;;;17.90;11.43;;;;;;;1.99;100.00;98460.06;4254417;82;21049;-90
2022/12/07 06:26:18;;;;;;;19.00;12.10;;;;;;;1.96;100.00;98466.89;4253719;82;21041;-90
2022/12/07 06:32:26;;;;;;;22.58;12.60;;;;;;;1.89;100.00;98469.36;4251671;82;21566;-91
2022/12/07 06:38:37;;;;;;;20.85;12.28;;;;;;;1.84;100.00;98475.50;4254080;82;22341;-92
2022/12/07 06:44:40;;;;;;;17.85;10.32;;;;;;;1.77;100.00;98480.65;4304399;81;21047;-92
2022/12/07 06:50:45;;;;;;;19.07;12.10;;;;;;;1.71;100.00;98472.53;4306698;81;21056;-92
2022/12/07 06:56:54;;;;;;;22.22;12.65;;;;;;;1.64;100.00;98479.80;4302181;81;21011;-91
2022/12/07 07:03:16;;;;;;;22.95;13.83;;;;;;;1.63;100.00;98483.59;4324384;80;21054;-90
2022/12/07 07:09:27;;;;;;;22.07;13.68;;;;;;;1.61;100.00;98484.50;4309292;80;20945;-91
2022/12/07 07:15:37;;;;;;;22.93;15.75;;;;;;;1.56;100.00;98489.53;4350406;80;21578;-91
2022/12/07 07:21:40;;;;;;;30.52;17.10;;;;;;;1.54;100.00;98493.11;4357790;80;21022;-91
2022/12/07 07:27:47;;;;;;;27.85;16.00;;;;;;;1.49;100.00;98494.64;4355042;80;21067;-92
2022/12/07 07:33:51;;;;;;;28.70;17.42;;;;;;;1.45;100.00;98492.38;4356388;80;21006;-91
2022/12/07 07:39:55;;;;;;;25.15;14.33;;;;;;;1.47;100.00;98496.88;4350060;80;21363;-92
2022/12/07 07:46:04;;;;;;;29.25;16.95;;;;;;;1.48;100.00;98496.32;4302618;80;21016;-90
2022/12/07 07:52:06;;;;;;;32.40;18.00;;;;;;;1.50;100.00;98498.91;4329022;80;20998;-91
2022/12/07 07:58:12;;;;;;;23.25;14.05;;;;;;;1.55;100.00;98495.26;4350733;80;21016;-92
2022/12/07 08:04:14;;;;;;;24.98;14.93;;;;;;;1.56;100.00;98502.22;4351191;80;21003;-91
2022/12/07 08:10:15;;;;;;;28.05;15.00;;;;;;;1.51;100.00;98506.45;4360907;80;20956;-92
2022/12/07 08:16:18;;;;;;;30.23;17.20;;;;;;;1.53;100.00;98511.74;4351008;80;20982;-92
2022/12/07 08:22:19;;;;;;;27.60;15.23;;;;;;;1.56;100.00;98510.31;4337120;80;21082;-91
2022/12/07 08:28:23;;;;;;;30.95;18.23;;;;;;;1.63;100.00;98520.59;4365918;80;21559;-92
2022/12/07 08:34:24;;;;;;;32.90;18.70;;;;;;;1.71;100.00;98521.87;4335937;80;20991;-91
2022/12/07 08:40:26;;;;;;;36.80;20.30;;;;;;;1.80;100.00;98515.88;4339509;80;21132;-92
2022/12/07 08:46:37;;;;;;;28.15;16.12;;;;;;;1.89;100.00;98530.08;4357395;80;21401;-91
2022/12/07 08:52:40;;;;;;;27.45;14.43;;;;;;;1.99;100.00;98533.72;4356557;80;21529;-92
2022/12/07 08:58:42;;;;;;;21.42;12.60;;;;;;;2.04;100.00;98526.78;4354230;80;20979;-92
2022/12/07 09:04:44;;;;;;;21.25;12.20;;;;;;;2.14;100.00;98534.48;4355893;80;21040;-91
2022/12/07 09:10:47;;;;;;;22.20;11.45;;;;;;;2.21;100.00;98539.36;4353371;80;21466;-91
2022/12/07 09:16:49;;;;;;;20.40;12.60;;;;;;;2.30;100.00;98532.73;4339128;80;20992;-89
2022/12/07 09:22:51;;;;;;;20.35;11.15;;;;;;;2.41;100.00;98530.44;4346114;80;21028;-90
2022/12/07 09:28:53;;;;;;;20.12;13.00;;;;;;;2.50;100.00;98521.13;4350957;80;20987;-89
2022/12/07 09:34:54;;;;;;;24.18;13.10;;;;;;;2.63;100.00;98520.59;4332642;80;21017;-89
2022/12/07 09:40:56;;;;;;;26.37;13.95;;;;;;;2.63;100.00;98517.89;4350303;80;21109;-88
2022/12/07 09:46:59;;;;;;;21.82;13.32;;;;;;;2.66;100.00;98513.94;4326839;80;22147;-89
2022/12/07 09:53:12;;;;;;;20.30;11.73;;;;;;;2.67;100.00;98510.69;4342781;80;21516;-89
2022/12/07 09:59:19;;;;;;;18.95;11.65;;;;;;;2.67;100.00;98509.33;4339496;79;21000;-88
2022/12/07 10:05:44;;;;;;;30.10;17.15;;;;;;;2.62;100.00;98502.78;4353354;80;21391;-89
2022/12/07 10:12:10;;;;;;;25.05;13.20;;;;;;;2.65;100.00;98499.41;4335532;80;21031;-89
2022/12/07 10:18:37;;;;;;;21.90;12.35;;;;;;;2.75;100.00;98498.44;4331418;79;21051;-90
2022/12/07 10:24:42;;;;;;;19.50;12.75;;;;;;;2.83;100.00;98488.64;4343724;80;21006;-90
2022/12/07 10:30:51;;;;;;;20.92;12.20;;;;;;;2.89;100.00;98487.30;4341461;80;21038;-89
2022/12/07 10:36:56;;;;;;;23.50;11.68;;;;;;;2.92;100.00;98482.56;4346540;80;21871;-90
2022/12/07 10:43:19;;;;;;;18.10;10.58;;;;;;;2.99;100.00;98477.41;4319202;80;21534;-90
2022/12/07 10:49:43;;;;;;;15.35;9.35;;;;;;;3.10;100.00;98467.72;4345648;80;21070;-90
2022/12/07 10:55:58;;;;;;;17.32;10.15;;;;;;;3.25;100.00;98468.37;4333227;80;20972;-91
2022/12/07 11:02:27;;;;;;;21.57;11.03;;;;;;;3.21;100.00;98462.84;4358991;80;21872;-91
2022/12/07 11:09:17;;;;;;;22.40;13.00;;;;;;;3.29;100.00;98445.50;4350581;80;21012;-90
2022/12/07 11:15:53;;;;;;;21.02;14.03;;;;;;;3.40;100.00;98442.55;4344291;80;21040;-91
2022/12/07 11:22:11;;;;;;;19.92;11.73;;;;;;;3.67;100.00;98441.79;4356394;80;21476;-90
2022/12/07 11:28:37;;;;;;;22.65;12.30;;;;;;;3.89;100.00;98448.04;4338878;80;21069;-90
2022/12/07 11:35:13;;;;;;;19.20;9.70;;;;;;;3.95;100.00;98439.89;4345585;80;20990;-91
2022/12/07 11:41:19;;;;;;;11.85;7.30;;;;;;;3.94;100.00;98440.48;4346831;79;21966;-91
2022/12/07 11:47:51;;;;;;;15.53;8.50;;;;;;;4.05;100.00;98431.28;4345901;80;21037;-90
2022/12/07 11:54:18;;;;;;;11.08;7.33;;;;;;;4.09;100.00;98433.51;4336250;80;21274;-90
2022/12/07 12:00:20;;;;;;;12.50;7.75;;;;;;;4.07;100.00;98429.03;4345843;80;22013;-90
2022/12/07 12:06:22;;;;;;;12.20;7.20;;;;;;;4.01;100.00;98420.34;4270278;79;21021;-90
2022/12/07 12:12:38;;;;;;;11.95;5.40;;;;;;;4.00;100.00;98414.72;4245544;82;21544;-90
2022/12/07 12:19:05;;;;;;;10.07;5.40;;;;;;;3.92;100.00;98417.01;4247548;82;21059;-90
2022/12/07 12:25:34;;;;;;;10.35;5.65;;;;;;;3.92;100.00;98413.50;4245497;82;21110;-89
2022/12/07 12:31:40;;;;;;;8.03;4.72;;;;;;;3.93;100.00;98405.03;4242303;82;21130;-90
2022/12/07 12:37:44;;;;;;;8.78;5.35;;;;;;;3.95;100.00;98401.98;4244334;82;21068;-90
2022/12/07 12:43:52;;;;;;;9.75;5.47;;;;;;;3.85;100.00;98405.99;4244785;82;21035;-90
2022/12/07 12:50:14;;;;;;;9.50;5.45;;;;;;;3.74;100.00;98401.41;4246565;82;20975;-91
2022/12/07 12:56:42;;;;;;;10.35;5.97;;;;;;;3.64;100.00;98404.59;4232961;82;21691;-90
2022/12/07 13:02:55;;;;;;;7.35;5.75;;;;;;;3.55;100.00;98401.23;4209258;82;21090;-90
2022/12/07 13:08:59;;;;;;;11.53;6.40;;;;;;;3.44;100.00;98407.70;4156704;83;21590;-90
2022/12/07 13:15:03;;;;;;;8.90;5.05;;;;;;;3.41;100.00;98413.00;4165905;84;21052;-90
2022/12/07 13:21:13;;;;;;;6.80;4.25;;;;;;;3.37;100.00;98402.66;4168949;82;21007;-89
2022/12/07 13:27:15;;;;;;;9.40;5.28;;;;;;;3.41;100.00;98407.03;4188761;83;21588;-89
2022/12/07 13:33:18;;;;;;;12.43;6.33;;;;;;;3.46;100.00;98404.66;4248726;82;21063;-90
2022/12/07 13:39:24;;;;;;;13.32;7.60;;;;;;;3.48;100.00;98403.17;4193402;83;22033;-89
2022/12/07 13:45:49;;;;;;;13.68;7.15;;;;;;;3.43;100.00;98418.87;4352004;80;21022;-90
2022/12/07 13:51:52;;;;;;;12.58;5.87;;;;;;;3.34;100.00;98422.25;4352495;80;21005;-87
2022/12/07 13:57:55;;;;;;;12.73;7.15;;;;;;;3.17;100.00;98419.23;4347398;80;21036;-90
2022/12/07 14:04:36;;;;;;;16.50;7.55;;;;;;;3.12;100.00;98434.34;4352394;80;21031;-90
2022/12/07 14:10:51;;;;;;;16.60;8.53;;;;;;;3.05;100.00;98434.13;4356951;80;20994;-89
2022/12/07 14:17:18;;;;;;;17.48;8.78;;;;;;;2.95;100.00;98439.42;4352022;80;21034;-90
2022/12/07 14:23:26;;;;;;;17.95;8.70;;;;;;;2.83;100.00;98446.19;4338306;80;20967;-90
2022/12/07 14:29:33;;;;;;;12.07;7.97;;;;;;;2.70;100.00;98439.74;4342558;80;21041;-89
2022/12/07 14:35:40;;;;;;;12.10;7.53;;;;;;;2.55;100.00;98443.11;4246741;82;21133;-89
2022/12/07 14:41:52;;;;;;;11.38;7.12;;;;;;;2.46;100.00;98443.78;4336077;80;20995;-89
2022/12/07 14:47:55;;;;;;;12.10;6.37;;;;;;;2.47;100.00;98441.30;4347537;80;21561;-90
2022/12/07 14:53:57;;;;;;;10.43;6.60;;;;;;;2.46;100.00;98428.92;4353627;80;21010;-90
2022/12/07 14:59:58;;;;;;;11.33;6.08;;;;;;;2.46;100.00;98433.74;4344614;80;20990;-88
2022/12/07 15:06:00;;;;;;;13.18;7.33;;;;;;;2.44;100.00;98440.06;4317168;80;21020;-89
2022/12/07 15:12:02;;;;;;;15.15;7.72;;;;;;;2.44;100.00;98448.17;4299334;80;21414;-88
2022/12/07 15:18:03;;;;;;;16.52;8.73;;;;;;;2.43;100.00;98439.02;4300466;81;21048;-89
2022/12/07 15:24:06;;;;;;;15.75;8.43;;;;;;;2.40;100.00;98443.19;4292524;81;21025;-89
2022/12/07 15:30:08;;;;;;;23.52;11.05;;;;;;;2.39;100.00;98446.23;4302540;80;21000;-89
2022/12/07 15:36:24;;;;;;;20.05;10.60;;;;;;;2.35;100.00;98450.16;4299989;81;21424;-89
2022/12/07 15:42:25;;;;;;;24.33;14.63;;;;;;;2.34;100.00;98450.48;4297476;81;21000;-90
2022/12/07 15:48:27;;;;;;;31.85;16.70;;;;;;;2.27;100.00;98465.11;4294918;81;22423;-90
2022/12/07 15:54:30;;;;;;;34.20;17.70;;;;;;;2.29;100.00;98472.30;4295846;80;21072;-89
2022/12/07 16:00:31;;;;;;;30.23;15.08;;;;;;;2.26;100.00;98473.77;4296204;80;21044;-88
2022/12/07 16:06:33;;;;;;;26.25;14.47;;;;;;;2.24;100.00;98472.53;4339712;80;21428;-90
2022/12/07 16:12:37;;;;;;;35.33;17.23;;;;;;;2.24;100.00;98476.00;4357160;80;21019;-88
2022/12/07 16:18:40;;;;;;;28.87;14.73;;;;;;;2.24;100.00;98481.98;4358977;79;21019;-89
2022/12/07 16:24:41;;;;;;;24.87;13.75;;;;;;;2.25;100.00;98478.15;4357177;79;21000;-89
2022/12/07 16:30:44;;;;;;;23.12;12.85;;;;;;;2.27;100.00;98477.27;4362858;80;22059;-89
2022/12/07 16:36:47;;;;;;;23.30;11.85;;;;;;;2.29;100.00;98484.45;4356045;80;21024;-90
2022/12/07 16:42:52;;;;;;;21.37;11.75;;;;;;;2.33;100.00;98475.38;4367347;80;21056;-89
2022/12/07 16:48:55;;;;;;;17.45;9.58;;;;;;;2.38;100.00;98477.84;4354283;79;20968;-90
2022/12/07 16:54:56;;;;;;;16.73;9.88;;;;;;;2.44;100.00;98480.59;4330726;80;20988;-90
2022/12/07 17:00:59;;;;;;;16.70;9.85;;;;;;;2.50;100.00;98492.75;4363054;80;20978;-90
2022/12/07 17:07:01;;;;;;;21.33;10.20;;;;;;;2.51;100.00;98490.27;4348942;80;21037;-89
2022/12/07 17:15:16;;;;;;;19.40;11.45;;;;;;;2.50;100.00;98494.11;4357220;80;21465;-89
2022/12/07 17:19:13;;;;;;;33.28;14.87;;;;;;;2.48;100.00;98492.84;4342242;80;21074;-89
2022/12/07 17:25:15;;;;;;;;;;;;;;;2.37;100.00;98490.33;4307286;80;22011;-88
2022/12/07 17:31:20;;;;;;;22.73;12.70;;;;;;;2.29;100.00;98494.70;4348153;80;20132;-89
2022/12/07 17:37:22;;;;;;;28.97;12.87;;;;;;;2.16;100.00;98496.35;4348382;80;21050;-89
2022/12/07 17:43:23;;;;;;;29.50;15.08;;;;;;;2.03;100.00;98494.16;4350683;80;21050;-89
2022/12/07 17:49:26;;;;;;;29.60;16.50;;;;;;;1.97;100.00;98498.19;4345305;80;21528;-89
2022/12/07 17:55:28;;;;;;;41.13;18.48;;;;;;;1.91;100.00;98496.78;4227502;80;10000037;-89
2022/12/07 18:01:31;;;;;;;41.33;15.30;;;;;;;1.77;100.00;98510.33;4345896;80;20994;-90
2022/12/07 18:07:34;;;;;;;38.45;16.30;;;;;;;1.64;100.00;98505.42;4368681;80;21085;-89
2022/12/07 18:13:36;;;;;;;23.38;12.60;;;;;;;1.55;100.00;98511.45;4367589;80;20975;-89
2022/12/07 18:19:38;;;;;;;16.15;8.58;;;;;;;1.56;100.00;98496.28;4351945;80;21033;-87
2022/12/07 18:25:42;;;;;;;14.80;7.78;;;;;;;1.63;100.00;98491.68;4360253;80;20982;-89
2022/12/07 18:31:46;;;;;;;11.38;6.67;;;;;;;1.75;100.00;98497.72;4338107;80;21058;-89
2022/12/07 18:37:47;;;;;;;12.58;7.20;;;;;;;1.83;100.00;98499.56;4360408;80;21050;-88
2022/12/07 18:43:51;;;;;;;12.93;7.00;;;;;;;1.86;100.00;98491.61;4341430;80;20971;-88
2022/12/07 18:49:54;;;;;;;16.65;8.43;;;;;;;1.95;100.00;98502.31;4338282;80;21030;-89
2022/12/07 18:56:09;;;;;;;19.73;8.33;;;;;;;1.99;100.00;98487.83;4350112;80;21010;-90
2022/12/07 19:02:11;;;;;;;19.87;9.05;;;;;;;1.94;100.00;98485.91;4342914;80;21022;-89
2022/12/07 19:08:13;;;;;;;24.35;11.38;;;;;;;1.82;100.00;98496.65;4344468;80;21209;-89
2022/12/07 19:14:31;;;;;;;30.95;12.28;;;;;;;1.68;100.00;98499.59;4354688;80;20982;-89
2022/12/07 19:20:38;;;;;;;33.85;17.73;;;;;;;1.57;100.00;98499.75;4347775;80;21002;-89
2022/12/07 19:26:43;;;;;;;45.52;19.75;;;;;;;1.54;100.00;98502.55;4325710;80;20970;-90
2022/12/07 19:32:44;;;;;;;39.83;18.90;;;;;;;1.56;100.00;98502.22;4352293;80;21010;-88
2022/12/07 19:38:46;;;;;;;35.95;17.60;;;;;;;1.59;100.00;98498.87;4350765;80;21033;-90
2022/12/07 19:44:48;;;;;;;42.00;17.20;;;;;;;1.55;100.00;98483.89;4355534;80;21530;-89
2022/12/07 19:50:50;;;;;;;41.42;16.73;;;;;;;1.63;100.00;98489.56;4352352;80;20982;-90
2022/12/07 19:56:53;;;;;;;39.08;16.57;;;;;;;1.68;100.00;98490.73;4358592;80;21622;-89
2022/12/07 20:02:55;;;;;;;32.30;14.75;;;;;;;1.75;100.00;98491.77;4353067;80;21549;-89
2022/12/07 20:08:56;;;;;;;27.65;13.13;;;;;;;1.80;100.00;98497.53;4351369;80;22085;-89
2022/12/07 20:15:00;;;;;;;23.55;13.10;;;;;;;1.85;100.00;98500.80;4360446;80;21008;-89
2022/12/07 20:21:02;;;;;;;21.02;11.38;;;;;;;1.88;100.00;98504.19;4347045;80;21029;-90
2022/12/07 20:27:06;;;;;;;21.05;10.70;;;;;;;1.93;100.00;98500.53;4346742;80;21013;-89
2022/12/07 20:33:07;;;;;;;19.12;9.15;;;;;;;2.00;100.00;98499.42;4353252;80;21813;-89
2022/12/07 20:39:09;;;;;;;17.25;8.90;;;;;;;2.02;100.00;98503.36;4342767;80;21510;-90
2022/12/07 20:45:11;;;;;;;17.12;9.35;;;;;;;2.05;100.00;98502.70;4330462;80;20961;-88
2022/12/07 20:51:12;;;;;;;14.73;8.40;;;;;;;2.12;100.00;98515.67;4346166;80;21036;-89
2022/12/07 20:57:14;;;;;;;20.30;8.30;;;;;;;2.17;100.00;98516.83;4351658;80;21924;-90
2022/12/07 21:03:15;;;;;;;17.32;8.53;;;;;;;2.18;100.00;98521.09;4342866;80;21044;-89
2022/12/07 21:09:25;;;;;;;16.23;8.33;;;;;;;2.17;100.00;98516.27;4352621;80;21038;-91
2022/12/07 21:15:30;;;;;;;17.57;8.28;;;;;;;2.18;100.00;98512.44;4347395;80;21014;-92
2022/12/07 21:21:33;;;;;;;15.83;7.42;;;;;;;2.17;100.00;98515.47;4345724;80;21029;-89
2022/12/07 21:27:35;;;;;;;14.73;7.12;;;;;;;2.17;100.00;98514.13;4350009;80;21023;-88
2022/12/07 21:33:38;;;;;;;13.75;6.25;;;;;;;2.18;100.00;98515.69;4345099;80;21643;-89
2022/12/07 21:39:39;;;;;;;15.43;6.92;;;;;;;2.20;100.00;98516.95;4315919;80;21040;-88
2022/12/07 21:45:41;;;;;;;13.78;6.58;;;;;;;2.23;100.00;98518.99;4347067;80;21015;-90
2022/12/07 21:51:43;;;;;;;13.43;6.08;;;;;;;2.26;100.00;98519.67;4350825;80;22089;-90
2022/12/07 21:57:45;;;;;;;15.40;6.08;;;;;;;2.28;100.00;98517.99;4349289;80;21884;-90
2022/12/07 22:03:47;;;;;;;13.65;5.80;;;;;;;2.30;100.00;98519.81;4343976;80;21028;-90
2022/12/07 22:09:49;;;;;;;17.92;6.00;;;;;;;2.33;100.00;98528.05;4348741;80;22053;-90
2022/12/07 22:15:50;;;;;;;13.13;5.45;;;;;;;2.33;100.00;98528.05;4344116;80;21044;-91
2022/12/07 22:21:52;;;;;;;11.63;5.60;;;;;;;2.35;100.00;98533.11;4344861;80;21036;-90
2022/12/07 22:27:53;;;;;;;11.55;4.95;;;;;;;2.35;100.00;98537.16;4360087;80;21027;-90
2022/12/07 22:33:54;;;;;;;12.15;5.35;;;;;;;2.33;100.00;98528.59;4351235;80;21036;-89
2022/12/07 22:39:56;;;;;;;11.15;5.50;;;;;;;2.31;100.00;98537.03;4345331;80;21560;-89
2022/12/07 22:45:59;;;;;;;12.23;4.80;;;;;;;2.28;100.00;98533.64;4346602;80;22214;-89
2022/12/07 22:52:00;;;;;;;10.48;4.58;;;;;;;2.23;100.00;98529.80;4344192;80;21872;-89
2022/12/07 22:58:03;;;;;;;9.73;4.65;;;;;;;2.22;100.00;98535.53;4347749;80;20986;-89
2022/12/07 23:04:04;;;;;;;10.30;4.37;;;;;;;2.16;100.00;98532.22;4345716;80;21109;-90
2022/12/07 23:10:27;;;;;;;11.53;4.90;;;;;;;2.16;100.00;98538.20;4358549;80;21779;-89
2022/12/07 23:16:29;;;;;;;10.60;4.37;;;;;;;2.12;100.00;98534.02;4340800;80;21068;-89
2022/12/07 23:22:30;;;;;;;12.18;4.30;;;;;;;2.10;100.00;98534.12;4348075;80;21595;-90
2022/12/07 23:28:33;;;;;;;9.10;4.72;;;;;;;2.10;100.00;98536.83;4339576;80;20968;-90
2022/12/07 23:34:34;;;;;;;10.55;5.72;;;;;;;2.08;100.00;98534.46;4348118;80;20983;-90
2022/12/07 23:40:36;;;;;;;13.08;5.35;;;;;;;2.07;100.00;98532.86;4359040;80;20957;-89
2022/12/07 23:46:37;;;;;;;10.38;4.22;;;;;;;2.07;100.00;98531.52;4323689;80;21468;-90
2022/12/07 23:52:38;;;;;;;7.85;3.95;;;;;;;2.07;100.00;98534.80;4354280;80;21249;-90
2022/12/07 23:58:41;;;;;;;8.53;4.85;;;;;;;2.05;100.00;98532.98;4356548;80;20935;-90
